Time;durP1;ratioP1;P1;durP2;ratioP2;P2;SDS_P1;SDS_P2;PMS_P1;PMS_P2;Temp;Humidity;BMP_temperature;BMP_pressure;BME280_temperature;BME280_humidity;BME280_pressure;Samples;Min_cycle;Max_cycle;Signal;HPM_P1;HPM_P2
2022/02/08 00:01:27;;;;;;;18.38;2.33;;;;;;;3.18;81.05;101522.53;5020813;28;20037;-74
2022/02/08 00:03:52;;;;;;;13.32;2.65;;;;;;;3.20;80.77;101522.59;5022779;28;20040;-74
2022/02/08 00:06:41;;;;;;;13.07;1.95;;;;;;;3.25;80.74;101519.34;5001995;28;20041;-74
2022/02/08 00:09:06;;;;;;;11.23;2.13;;;;;;;3.21;80.56;101525.25;5019993;28;20044;-74
2022/02/08 00:11:33;;;;;;;14.35;2.13;;;;;;;3.20;80.84;101525.22;5021906;28;20045;-74
2022/02/08 00:13:58;;;;;;;12.25;2.00;;;;;;;3.16;80.37;101524.16;5021393;28;20518;-74
2022/02/08 00:16:23;;;;;;;14.02;2.15;;;;;;;3.10;80.77;101525.66;5002665;28;20120;-74
2022/02/08 00:18:49;;;;;;;11.63;1.77;;;;;;;3.02;80.83;101521.03;5022570;28;20036;-74
2022/02/08 00:21:15;;;;;;;8.95;1.83;;;;;;;3.01;81.16;101519.25;5020171;28;20045;-74
2022/02/08 00:23:40;;;;;;;12.52;1.98;;;;;;;3.05;81.18;101523.75;5022520;28;20520;-74
2022/02/08 00:26:06;;;;;;;11.50;2.60;;;;;;;3.11;81.40;101532.66;5022415;28;20076;-74
2022/02/08 00:28:31;;;;;;;8.85;2.30;;;;;;;3.11;81.41;101537.88;5022654;28;20033;-74
2022/02/08 00:30:56;;;;;;;11.23;2.13;;;;;;;3.15;80.79;101538.06;5004539;28;20045;-75
2022/02/08 00:33:21;;;;;;;9.32;1.50;;;;;;;3.13;80.86;101542.31;5025067;28;20505;-74
2022/02/08 00:35:47;;;;;;;11.45;2.47;;;;;;;3.16;80.72;101538.94;5012916;28;20038;-74
2022/02/08 00:38:13;;;;;;;8.00;1.30;;;;;;;3.20;80.72;101540.84;5002349;28;20052;-74
2022/02/08 00:40:38;;;;;;;10.82;2.35;;;;;;;3.28;80.45;101544.66;5029135;28;20033;-74
2022/02/08 00:43:05;;;;;;;16.60;2.65;;;;;;;3.36;80.13;101543.22;5004479;28;20486;-74
2022/02/08 00:48:08;;;;;;;20.48;2.58;;;;;;;3.49;79.11;101552.44;5012919;28;20077;-74
2022/02/08 00:50:34;;;;;;;9.93;1.90;;;;;;;3.60;78.87;101545.03;5002789;28;20029;-74
2022/02/08 00:52:59;;;;;;;13.25;2.17;;;;;;;3.63;78.82;101547.75;5021467;28;20043;-74
2022/02/08 00:55:24;;;;;;;17.48;3.47;;;;;;;3.64;78.13;101550.44;5025725;28;20080;-74
2022/02/08 00:57:50;;;;;;;11.93;1.88;;;;;;;3.77;77.96;101553.47;5024875;28;20045;-74
2022/02/08 01:00:15;;;;;;;15.25;2.17;;;;;;;3.85;77.91;101555.56;5007877;28;20409;-74
2022/02/08 01:02:41;;;;;;;13.75;2.60;;;;;;;3.88;77.74;101550.44;5029691;28;20034;-74
2022/02/08 01:05:10;;;;;;;9.70;1.73;;;;;;;3.97;77.09;101549.00;5014462;28;20036;-74
2022/02/08 01:07:35;;;;;;;8.90;1.60;;;;;;;4.05;76.97;101558.00;5013596;28;20022;-75
2022/02/08 01:10:02;;;;;;;12.02;2.40;;;;;;;4.12;76.13;101553.06;5026803;28;20649;-74
2022/02/08 01:12:31;;;;;;;11.38;1.95;;;;;;;4.15;76.14;101549.69;5007662;28;20037;-74
2022/02/08 01:14:58;;;;;;;13.10;1.83;;;;;;;4.15;76.35;101560.13;5015818;28;20507;-74
2022/02/08 01:17:25;;;;;;;10.65;1.58;;;;;;;4.14;76.15;101560.97;5015816;28;20492;-75
2022/02/08 01:20:06;;;;;;;13.20;1.90;;;;;;;4.14;76.22;101563.59;5022630;28;20494;-74
2022/02/08 01:22:32;;;;;;;11.95;1.75;;;;;;;4.21;75.96;101559.47;5025829;28;20051;-75
2022/02/08 01:24:57;;;;;;;13.00;1.90;;;;;;;4.24;76.01;101557.84;5023680;28;20513;-75
2022/02/08 01:27:27;;;;;;;11.00;1.55;;;;;;;4.22;76.45;101558.63;5008653;28;20857;-74
2022/02/08 01:29:56;;;;;;;12.20;1.80;;;;;;;4.21;76.10;101560.34;5005082;28;20454;-75
2022/02/08 01:35:04;;;;;;;9.98;2.30;;;;;;;4.18;76.85;101549.78;5026265;28;20058;-75
2022/02/08 01:37:49;;;;;;;12.63;2.38;;;;;;;4.16;76.92;101544.50;5029953;28;20036;-74
2022/02/08 01:43:14;;;;;;;9.07;2.55;;;;;;;4.14;76.44;101548.81;5006133;28;20040;-74
2022/02/08 01:48:41;;;;;;;10.65;2.30;;;;;;;4.18;76.29;101540.22;5027804;28;20044;-74
2022/02/08 01:50:58;;;;;;;14.80;2.67;;;;;;;4.25;76.19;101543.97;5028274;28;20404;-74
2022/02/08 01:53:23;;;;;;;14.10;2.63;;;;;;;4.28;76.50;101543.19;5005807;28;20045;-74
2022/02/08 01:55:50;;;;;;;10.95;2.70;;;;;;;4.23;76.15;101543.00;5030982;28;20025;-74
2022/02/08 01:58:17;;;;;;;14.77;3.08;;;;;;;4.24;76.31;101543.88;5015368;28;20025;-74
2022/02/08 02:00:42;;;;;;;13.20;3.22;;;;;;;4.14;76.07;101543.56;5006358;28;20041;-75
2022/02/08 02:03:10;;;;;;;9.85;2.67;;;;;;;4.02;76.63;101537.00;5028967;28;20092;-74
2022/02/08 02:05:35;;;;;;;13.07;3.95;;;;;;;3.88;76.78;101542.63;5014742;28;20067;-74
2022/02/08 02:08:02;;;;;;;15.25;3.70;;;;;;;3.71;77.27;101538.47;5004154;28;20506;-74
2022/02/08 02:10:29;;;;;;;14.52;2.70;;;;;;;3.62;77.42;101530.31;5006377;28;20509;-74
2022/02/08 02:12:58;;;;;;;13.68;3.03;;;;;;;3.50;77.46;101525.50;4997240;28;20140;-74
2022/02/08 02:15:29;;;;;;;13.40;2.83;;;;;;;3.42;77.69;101521.69;5010435;28;20034;-74
2022/02/08 02:17:55;;;;;;;15.55;2.95;;;;;;;3.37;78.25;101523.25;5022763;28;20065;-74
2022/02/08 02:20:23;;;;;;;14.82;2.90;;;;;;;3.27;78.21;101530.72;5005015;28;20073;-74
2022/02/08 02:22:48;;;;;;;15.50;3.13;;;;;;;3.24;78.40;101527.09;5014669;28;20116;-74
2022/02/08 02:25:23;;;;;;;15.18;3.08;;;;;;;3.22;78.23;101523.53;5006678;28;20117;-74
2022/02/08 02:27:49;;;;;;;13.27;3.30;;;;;;;3.16;78.52;101533.72;5013535;28;20032;-74
2022/02/08 02:30:16;;;;;;;17.42;3.83;;;;;;;3.16;78.47;101523.28;5003649;28;20034;-74
2022/02/08 02:32:42;;;;;;;10.52;3.10;;;;;;;3.14;78.39;101525.81;5024227;28;20045;-74
2022/02/08 02:35:08;;;;;;;12.73;2.95;;;;;;;3.06;78.41;101522.91;5027606;28;20034;-74
2022/02/08 02:37:33;;;;;;;13.48;3.50;;;;;;;2.96;78.81;101538.13;5025183;28;20060;-74
2022/02/08 02:39:59;;;;;;;12.00;3.30;;;;;;;2.98;78.57;101536.47;5003920;28;20120;-74
2022/02/08 02:42:27;;;;;;;9.77;3.05;;;;;;;2.91;78.98;101532.75;5031511;28;20033;-74
2022/02/08 02:44:52;;;;;;;11.32;3.08;;;;;;;2.92;78.63;101536.25;5022917;28;20041;-74
2022/02/08 02:47:22;;;;;;;11.45;3.83;;;;;;;2.83;79.34;101535.03;5029230;28;20029;-74
2022/02/08 02:49:47;;;;;;;12.10;3.58;;;;;;;2.79;79.18;101532.22;5014630;28;20032;-74
2022/02/08 02:52:13;;;;;;;11.88;3.63;;;;;;;2.78;79.11;101535.69;5027778;28;20071;-74
2022/02/08 02:54:42;;;;;;;12.57;4.05;;;;;;;2.72;79.13;101540.63;5004548;28;20033;-74
2022/02/08 02:57:07;;;;;;;19.08;4.60;;;;;;;2.68;79.18;101538.72;5024173;28;20044;-74
2022/02/08 02:59:35;;;;;;;11.35;3.33;;;;;;;2.64;79.30;101538.56;5003245;28;20092;-74
2022/02/08 03:04:42;;;;;;;12.73;3.58;;;;;;;2.66;79.62;101533.44;5007358;28;20026;-74
2022/02/08 03:17:34;;;;;;;10.00;4.00;;;;;;;2.70;79.35;101532.75;5012119;28;20029;-74
2022/02/08 03:20:46;;;;;;;12.45;4.38;;;;;;;3.01;78.65;101541.81;5007379;28;20065;-74
2022/02/08 03:23:15;;;;;;;17.80;4.50;;;;;;;3.08;78.23;101547.34;5013774;28;20386;-74
2022/02/08 03:25:42;;;;;;;11.05;3.88;;;;;;;3.13;77.67;101549.25;5005172;28;20033;-74
2022/02/08 03:28:16;;;;;;;18.70;5.85;;;;;;;3.07;77.40;101540.34;5009577;28;20033;-74
2022/02/08 03:30:42;;;;;;;12.45;4.18;;;;;;;3.23;76.97;101539.25;5022475;28;20099;-74
2022/02/08 03:33:09;;;;;;;14.55;4.20;;;;;;;3.34;77.19;101533.56;5004503;28;20033;-74
2022/02/08 03:35:38;;;;;;;10.52;3.90;;;;;;;3.35;76.97;101535.34;5011105;28;20119;-74
2022/02/08 03:38:06;;;;;;;13.23;4.05;;;;;;;3.37;76.81;101531.97;5013640;28;20124;-74
2022/02/08 03:46:09;;;;;;;11.35;3.88;;;;;;;3.35;76.26;101515.34;4992162;28;20405;-74
2022/02/08 03:48:38;;;;;;;16.25;5.20;;;;;;;3.41;76.57;101513.00;5003920;28;20048;-74
2022/02/08 03:51:09;;;;;;;10.95;3.88;;;;;;;3.44;75.91;101520.06;5012705;28;20038;-74
2022/02/08 03:53:44;;;;;;;13.77;5.13;;;;;;;3.38;75.89;101512.88;5011104;28;20041;-74
2022/02/08 03:56:13;;;;;;;12.25;4.57;;;;;;;3.47;75.77;101510.59;5002196;28;20105;-74
2022/02/08 03:58:39;;;;;;;12.00;4.85;;;;;;;3.43;75.68;101513.94;5005254;28;20025;-74
2022/02/08 04:04:26;;;;;;;11.07;5.07;;;;;;;3.44;75.72;101509.59;5024540;28;20520;-74
2022/02/08 04:06:53;;;;;;;12.68;4.80;;;;;;;3.52;75.53;101502.97;5022714;28;20060;-74
2022/02/08 04:09:19;;;;;;;12.38;4.53;;;;;;;3.51;75.83;101501.16;5021175;28;20612;-74
2022/02/08 04:11:58;;;;;;;16.17;4.57;;;;;;;3.60;75.54;101505.88;5023390;28;20124;-74
2022/02/08 04:14:36;;;;;;;12.52;4.68;;;;;;;3.62;75.67;101499.00;5022902;28;20041;-74
2022/02/08 04:17:15;;;;;;;14.48;4.93;;;;;;;3.53;75.41;101514.28;5022051;28;20106;-74
2022/02/08 04:33:58;;;;;;;13.23;4.20;;;;;;;3.64;74.99;101507.75;5024761;28;20119;-74
2022/02/08 04:36:30;;;;;;;16.20;5.30;;;;;;;3.65;74.63;101519.97;5023459;28;20041;-74
2022/02/08 04:41:58;;;;;;;17.98;5.65;;;;;;;3.68;74.27;101513.13;5024758;28;20411;-75
2022/02/08 04:44:32;;;;;;;13.10;4.63;;;;;;;3.77;74.19;101506.47;5024557;28;20049;-75
2022/02/08 04:49:23;;;;;;;13.80;4.72;;;;;;;3.80;73.76;101499.66;5026029;28;20113;-74
2022/02/08 04:51:53;;;;;;;12.65;5.25;;;;;;;3.89;73.51;101499.09;5020070;28;20199;-75
2022/02/08 04:54:27;;;;;;;10.38;4.45;;;;;;;3.87;73.05;101488.59;5027222;28;20401;-75
2022/02/08 04:59:31;;;;;;;14.30;5.15;;;;;;;3.86;73.54;101484.22;5023972;28;20049;-74
2022/02/08 05:27:06;;;;;;;14.30;4.43;;;;;;;4.14;72.32;101443.41;5022117;28;20056;-75
2022/02/08 05:40:43;;;;;;;12.35;4.03;;;;;;;4.19;71.53;101433.97;5023779;28;20128;-75
2022/02/08 05:43:18;;;;;;;11.32;4.13;;;;;;;4.18;71.70;101442.66;5025711;28;20040;-74
2022/02/08 05:48:29;;;;;;;12.57;4.40;;;;;;;4.28;71.08;101434.31;5026581;28;20124;-75
2022/02/08 05:51:06;;;;;;;11.13;4.13;;;;;;;4.33;71.19;101424.91;5027810;28;20037;-75
2022/02/08 05:53:42;;;;;;;14.55;4.10;;;;;;;4.39;71.05;101430.31;5027437;28;20505;-75
2022/02/08 05:56:08;;;;;;;17.88;6.35;;;;;;;4.43;70.75;101427.78;5028285;28;20596;-74
2022/02/08 05:58:34;;;;;;;11.27;3.60;;;;;;;4.42;70.36;101429.53;5029051;28;20056;-74
2022/02/08 06:00:59;;;;;;;13.13;4.28;;;;;;;4.49;70.72;101428.91;5027083;28;20053;-74
2022/02/08 06:03:40;;;;;;;14.48;3.53;;;;;;;4.49;70.65;101422.78;5004569;28;20033;-74
2022/02/08 06:06:06;;;;;;;12.75;3.85;;;;;;;4.55;70.75;101431.72;5014495;28;20038;-74
2022/02/08 06:08:32;;;;;;;12.25;4.22;;;;;;;4.56;70.80;101422.16;5024583;28;20096;-74
2022/02/08 06:11:14;;;;;;;15.32;3.60;;;;;;;4.58;70.35;101416.16;5025109;28;20067;-74
2022/02/08 06:13:41;;;;;;;11.80;3.22;;;;;;;4.59;70.59;101422.25;5024481;28;20049;-74
2022/02/08 06:16:15;;;;;;;17.40;3.92;;;;;;;4.59;69.92;101412.69;5003560;28;20030;-74
2022/02/08 06:18:40;;;;;;;11.40;3.53;;;;;;;4.60;69.89;101404.00;5021921;28;20136;-74
2022/02/08 06:21:06;;;;;;;13.23;3.53;;;;;;;4.69;70.12;101402.50;5024402;28;20480;-74
2022/02/08 06:23:31;;;;;;;11.23;3.28;;;;;;;4.70;70.07;101412.13;5021863;28;20553;-74
2022/02/08 06:25:56;;;;;;;18.42;4.57;;;;;;;4.73;69.99;101420.97;5006409;28;20091;-74
2022/02/08 06:28:23;;;;;;;13.15;3.83;;;;;;;4.70;70.17;101415.63;5024601;28;20446;-74
2022/02/08 06:30:48;;;;;;;17.38;4.20;;;;;;;4.64;70.23;101423.28;5023502;28;20045;-74
2022/02/08 06:33:14;;;;;;;14.27;3.78;;;;;;;4.67;70.66;101420.78;5021572;28;20034;-74
2022/02/08 06:35:42;;;;;;;10.95;3.80;;;;;;;4.67;71.15;101423.38;5009232;28;20529;-74
2022/02/08 06:38:11;;;;;;;18.15;4.10;;;;;;;4.65;72.10;101419.84;5023228;28;20037;-74
2022/02/08 06:40:38;;;;;;;14.75;4.88;;;;;;;4.56;72.91;101427.41;5023898;28;20045;-74
2022/02/08 06:43:04;;;;;;;10.65;3.80;;;;;;;4.42;74.83;101428.66;5003774;28;20044;-74
2022/02/08 06:45:31;;;;;;;12.57;3.78;;;;;;;4.45;74.67;101426.13;5023382;28;20516;-74
2022/02/08 06:47:56;;;;;;;17.02;3.90;;;;;;;4.37;75.31;101424.13;5018361;28;20030;-74
2022/02/08 06:50:21;;;;;;;15.02;4.28;;;;;;;4.39;75.83;101421.59;5006837;28;20288;-74
2022/02/08 06:52:47;;;;;;;14.55;3.35;;;;;;;4.38;75.70;101420.72;5025339;28;20080;-74
2022/02/08 06:55:13;;;;;;;11.73;4.22;;;;;;;4.45;75.88;101419.16;5021771;28;20418;-74
2022/02/08 07:00:29;;;;;;;13.82;4.32;;;;;;;4.56;76.08;101416.94;5025651;28;20413;-74
2022/02/08 07:02:54;;;;;;;11.23;4.18;;;;;;;4.60;76.39;101414.44;5022970;28;20033;-74
2022/02/08 07:05:20;;;;;;;17.17;4.30;;;;;;;4.58;76.88;101412.63;5029291;28;20120;-74
2022/02/08 07:07:45;;;;;;;13.77;4.70;;;;;;;4.54;77.36;101410.75;5027085;28;20048;-74
2022/02/08 07:10:10;;;;;;;11.60;3.88;;;;;;;4.51;77.66;101422.00;5022898;28;20037;-74
2022/02/08 07:12:37;;;;;;;14.45;4.38;;;;;;;4.49;77.93;101418.44;5025897;28;20605;-74
2022/02/08 07:15:09;;;;;;;12.73;3.85;;;;;;;4.50;78.36;101424.56;5027431;28;20043;-74
2022/02/08 07:17:34;;;;;;;14.60;4.05;;;;;;;4.45;79.07;101427.00;5026514;28;20041;-74
2022/02/08 07:19:59;;;;;;;13.30;4.03;;;;;;;4.39;79.56;101435.53;5023136;28;20079;-74
2022/02/08 07:22:25;;;;;;;13.18;3.97;;;;;;;4.54;79.24;101439.53;5022217;28;20030;-74
2022/02/08 07:24:51;;;;;;;13.30;3.97;;;;;;;4.57;79.49;101444.84;5030049;28;20067;-74
2022/02/08 07:27:16;;;;;;;15.75;3.85;;;;;;;4.59;79.54;101446.66;5024370;28;20456;-74
2022/02/08 07:29:50;;;;;;;19.10;4.30;;;;;;;4.50;81.19;101441.13;5029234;28;20386;-74
2022/02/08 07:32:15;;;;;;;9.40;3.42;;;;;;;4.57;80.89;101437.00;5023256;28;20033;-74
2022/02/08 07:34:46;;;;;;;12.95;3.40;;;;;;;4.59;80.51;101438.81;5008099;28;20564;-74
2022/02/08 07:39:44;;;;;;;9.23;2.53;;;;;;;4.61;81.04;101438.84;5025247;28;20107;-74
2022/02/08 07:42:10;;;;;;;12.63;3.67;;;;;;;4.65;80.46;101432.91;5026486;28;20120;-74
2022/02/08 07:44:36;;;;;;;10.15;3.33;;;;;;;4.67;79.72;101431.22;5010566;28;20026;-74
2022/02/08 07:47:09;;;;;;;11.38;3.38;;;;;;;4.68;79.71;101426.88;5010091;28;20048;-74
2022/02/08 07:49:38;;;;;;;12.77;3.22;;;;;;;4.67;79.50;101420.78;5026833;28;20401;-74
2022/02/08 07:52:04;;;;;;;13.98;2.97;;;;;;;4.78;79.20;101405.41;5028235;28;20038;-74
2022/02/08 07:54:29;;;;;;;8.23;2.63;;;;;;;4.84;78.41;101416.06;5021316;28;20092;-74
2022/02/08 07:56:55;;;;;;;13.80;3.28;;;;;;;4.99;78.50;101406.06;5023322;28;20079;-74
2022/02/08 07:59:20;;;;;;;12.45;3.67;;;;;;;5.04;77.59;101408.84;5021419;28;20064;-74
2022/02/08 08:01:45;;;;;;;13.05;3.22;;;;;;;5.09;76.87;101404.63;5019996;28;20164;-73
2022/02/08 08:04:11;;;;;;;15.60;4.40;;;;;;;5.09;76.57;101409.00;5020724;28;20127;-73
2022/02/08 08:06:36;;;;;;;11.38;3.85;;;;;;;5.03;77.09;101405.34;5022933;28;20060;-73
2022/02/08 08:09:04;;;;;;;7.22;2.83;;;;;;;5.10;76.49;101406.41;5019620;28;20037;-73
2022/02/08 08:11:36;;;;;;;12.77;2.90;;;;;;;5.11;76.04;101407.28;5029228;28;20079;-73
2022/02/08 08:14:03;;;;;;;13.15;2.35;;;;;;;5.14;75.26;101407.41;5029512;28;20026;-73
2022/02/08 08:16:43;;;;;;;8.50;2.40;;;;;;;5.25;74.82;101398.13;5025699;28;20041;-73
2022/02/08 08:21:39;;;;;;;10.63;2.20;;;;;;;5.23;75.18;101397.19;5023501;28;20065;-73
2022/02/08 08:24:05;;;;;;;9.00;2.83;;;;;;;5.26;75.10;101399.88;5025685;28;20551;-73
2022/02/08 08:26:32;;;;;;;13.00;2.80;;;;;;;5.30;74.92;101399.16;5023074;28;20079;-73
2022/02/08 08:28:57;;;;;;;10.68;3.17;;;;;;;5.40;74.68;101395.06;5027896;28;20504;-73
2022/02/08 08:31:24;;;;;;;9.32;2.28;;;;;;;5.42;74.32;101410.00;5006799;28;20060;-73
2022/02/08 08:33:50;;;;;;;8.63;3.13;;;;;;;5.39;74.98;101399.41;5020850;28;20478;-73
2022/02/08 08:36:18;;;;;;;11.00;2.92;;;;;;;5.44;74.84;101394.31;5011409;28;20087;-73
2022/02/08 08:38:47;;;;;;;6.65;2.55;;;;;;;5.48;75.45;101401.41;5021817;28;20049;-73
2022/02/08 08:51:57;;;;;;;11.52;2.65;;;;;;;5.33;77.86;101411.44;5023038;28;20121;-73
2022/02/08 08:54:23;;;;;;;8.30;2.08;;;;;;;5.41;78.14;101404.69;5019160;28;20049;-73
2022/02/08 08:56:50;;;;;;;10.23;2.10;;;;;;;5.47;78.39;101405.75;5022358;28;20034;-73
2022/02/08 08:59:17;;;;;;;7.50;2.10;;;;;;;5.55;78.34;101397.22;5003705;28;20440;-72
2022/02/08 09:01:43;;;;;;;7.38;1.65;;;;;;;5.56;78.41;101391.16;5026008;28;20051;-73
2022/02/08 09:04:09;;;;;;;6.45;2.25;;;;;;;5.60;78.21;101391.25;5028304;28;20029;-73
2022/02/08 09:06:36;;;;;;;8.55;2.25;;;;;;;5.64;78.06;101387.03;5021260;28;20042;-73
2022/02/08 09:09:09;;;;;;;11.18;2.25;;;;;;;5.68;77.60;101381.88;5024082;28;20476;-73
2022/02/08 09:11:56;;;;;;;8.77;3.33;;;;;;;5.73;77.96;101410.81;5025753;28;20038;-73
2022/02/08 09:14:35;;;;;;;9.98;2.90;;;;;;;5.70;79.23;101382.81;5026774;28;20042;-73
2022/02/08 09:17:30;;;;;;;8.75;2.33;;;;;;;5.73;80.69;101376.78;5028347;28;20477;-72
2022/02/08 09:22:34;;;;;;;8.90;2.60;;;;;;;5.62;82.11;101376.50;5029786;28;20085;-73
2022/02/08 09:25:28;;;;;;;7.93;2.38;;;;;;;5.52;82.87;101374.47;5026181;28;20095;-73
2022/02/08 09:30:39;;;;;;;8.30;2.33;;;;;;;5.48;83.56;101383.09;5025884;28;20068;-72
2022/02/08 09:33:05;;;;;;;8.02;2.13;;;;;;;5.58;83.03;101364.19;5027076;28;20061;-73
2022/02/08 09:35:30;;;;;;;9.60;2.53;;;;;;;5.87;82.92;101371.94;5028249;28;20072;-72
2022/02/08 09:37:55;;;;;;;8.00;2.60;;;;;;;5.92;82.18;101360.72;5023752;28;20465;-73
2022/02/08 09:40:22;;;;;;;8.13;2.50;;;;;;;5.90;81.19;101359.78;5005705;28;20053;-73
2022/02/08 09:42:50;;;;;;;8.63;2.67;;;;;;;6.05;80.88;101355.81;5025325;28;20052;-72
2022/02/08 09:45:19;;;;;;;9.80;2.65;;;;;;;6.18;80.29;101371.00;5025245;28;20069;-73
2022/02/08 09:48:08;;;;;;;11.25;2.97;;;;;;;6.43;79.71;101359.38;5023931;28;20029;-72
2022/02/08 09:50:36;;;;;;;9.98;3.13;;;;;;;6.48;79.64;101375.25;5011810;28;20386;-73
2022/02/08 09:53:03;;;;;;;15.60;3.92;;;;;;;6.62;80.65;101365.06;5027889;28;20045;-72
2022/02/08 09:55:37;;;;;;;7.85;1.92;;;;;;;6.72;77.38;101367.06;5011737;28;20513;-73
2022/02/08 09:58:04;;;;;;;8.90;1.83;;;;;;;6.63;76.65;101357.25;5028396;28;20045;-73
2022/02/08 10:00:32;;;;;;;7.50;1.95;;;;;;;6.54;76.96;101368.38;5012204;28;20087;-73
2022/02/08 10:03:07;;;;;;;6.72;1.85;;;;;;;6.50;77.38;101369.19;5025041;28;20036;-72
2022/02/08 10:05:45;;;;;;;5.93;1.65;;;;;;;6.65;76.37;101370.38;5021982;28;20124;-72
2022/02/08 10:08:11;;;;;;;8.88;2.35;;;;;;;6.69;76.15;101377.47;5025042;28;20084;-72
2022/02/08 10:10:37;;;;;;;6.30;1.90;;;;;;;6.71;75.51;101375.78;5028150;28;20694;-72
2022/02/08 10:13:17;;;;;;;6.70;1.80;;;;;;;6.50;76.16;101360.44;5025487;28;20041;-73
2022/02/08 10:19:02;;;;;;;9.85;2.03;;;;;;;6.70;75.83;101368.75;5027615;28;20508;-72
2022/02/08 10:21:48;;;;;;;5.88;2.00;;;;;;;6.59;76.14;101361.50;5011033;28;20409;-72
2022/02/08 10:24:16;;;;;;;6.28;2.10;;;;;;;6.61;76.04;101368.56;5031058;28;20037;-72
2022/02/08 10:29:35;;;;;;;11.25;2.30;;;;;;;6.84;75.63;101345.44;5023749;28;20072;-72
2022/02/08 10:38:01;;;;;;;9.80;2.60;;;;;;;6.75;75.22;101351.38;4941614;28;20055;-71
2022/02/08 10:40:26;;;;;;;6.78;1.88;;;;;;;6.92;75.29;101357.00;5024977;28;20029;-72
2022/02/08 10:42:58;;;;;;;7.05;1.90;;;;;;;7.00;74.85;101371.19;5021708;28;20478;-72
2022/02/08 10:45:29;;;;;;;5.72;1.70;;;;;;;7.22;74.42;101344.53;5022146;28;20129;-72
2022/02/08 10:48:03;;;;;;;7.97;2.00;;;;;;;7.42;74.25;101351.94;5023969;28;20047;-72
2022/02/08 10:50:32;;;;;;;7.95;2.10;;;;;;;7.34;73.04;101350.91;5023069;28;20490;-73
2022/02/08 10:53:00;;;;;;;7.80;1.75;;;;;;;7.40;73.35;101344.00;5015297;28;20056;-72
2022/02/08 10:56:08;;;;;;;7.80;1.55;;;;;;;7.41;73.17;101345.81;5023942;28;20029;-72
2022/02/08 10:58:42;;;;;;;8.00;1.92;;;;;;;7.35;73.68;101345.66;5019491;28;20084;-73
2022/02/08 11:01:13;;;;;;;6.10;1.60;;;;;;;7.34;73.90;101357.03;5028871;28;20049;-72
2022/02/08 11:06:34;;;;;;;5.25;1.40;;;;;;;7.45;73.76;101342.34;5026656;28;20136;-73
2022/02/08 11:11:41;;;;;;;4.30;1.30;;;;;;;7.51;73.58;101346.84;5021960;28;20034;-73
2022/02/08 11:20:19;;;;;;;4.70;1.30;;;;;;;7.84;72.54;101349.22;5028795;28;20038;-73
2022/02/08 11:23:04;;;;;;;6.10;1.67;;;;;;;7.87;71.25;101349.28;5013334;28;20037;-73
2022/02/08 11:25:37;;;;;;;6.03;2.03;;;;;;;8.02;72.05;101358.31;5023262;28;20068;-73
2022/02/08 11:28:24;;;;;;;7.53;2.65;;;;;;;8.11;71.22;101355.81;5023263;28;20042;-72
2022/02/08 11:31:09;;;;;;;5.63;1.67;;;;;;;8.01;72.24;101341.63;5013058;28;20040;-72
2022/02/08 11:42:51;;;;;;;5.88;2.25;;;;;;;7.44;76.54;101345.84;5020480;28;20140;-73
2022/02/08 11:44:56;;;;;;;6.30;2.05;;;;;;;7.51;77.94;101357.34;5025718;28;20500;-72
2022/02/08 11:47:50;;;;;;;4.97;1.80;;;;;;;7.43;77.98;101343.19;5019806;28;20041;-72
2022/02/08 11:51:01;;;;;;;5.57;1.60;;;;;;;7.38;78.17;101337.84;5023355;28;20076;-72
2022/02/08 11:53:46;;;;;;;6.20;1.60;;;;;;;7.47;77.27;101335.41;5028627;28;20033;-73
2022/02/08 11:58:47;;;;;;;7.03;1.95;;;;;;;7.51;76.95;101331.09;5023084;28;20044;-72
2022/02/08 12:01:20;;;;;;;4.57;1.60;;;;;;;7.54;76.68;101335.50;5029115;28;20041;-72
2022/02/08 12:04:12;;;;;;;4.78;2.00;;;;;;;7.50;75.89;101325.81;5021563;28;20041;-72
2022/02/08 12:07:05;;;;;;;5.40;1.77;;;;;;;7.58;76.45;101326.84;5026119;28;20045;-72
2022/02/08 12:09:39;;;;;;;;;;;;;;;7.72;75.41;101317.47;5022405;28;20501;-72
2022/02/08 12:12:41;;;;;;;6.68;1.80;;;;;;;7.97;74.86;101320.53;5023189;28;19917;-72
2022/02/08 12:31:59;;;;;;;5.45;1.80;;;;;;;8.41;72.04;101262.50;5022759;28;20762;-73
2022/02/08 12:34:49;;;;;;;3.42;1.70;;;;;;;8.51;71.74;101254.81;5023565;28;20053;-72
2022/02/08 12:48:34;;;;;;;5.18;1.80;;;;;;;8.66;71.23;101250.59;5022604;28;20456;-72
2022/02/08 12:49:12;;;;;;;5.07;1.73;;;;;;;8.47;71.66;101265.25;5023700;28;20124;-73
2022/02/08 12:54:15;;;;;;;3.63;1.50;;;;;;;8.40;71.84;101269.53;5029228;28;20138;-73
2022/02/08 12:57:03;;;;;;;4.43;1.70;;;;;;;8.31;72.13;101265.00;5026451;28;20041;-73
2022/02/08 13:02:41;;;;;;;3.90;1.40;;;;;;;8.36;72.13;101257.19;5031230;28;20693;-73
2022/02/08 13:19:41;;;;;;;5.13;1.52;;;;;;;8.35;72.12;101277.31;5024837;28;20036;-73
2022/02/08 13:32:29;;;;;;;4.03;1.50;;;;;;;8.35;72.29;101285.19;5025573;28;20628;-73
2022/02/08 14:03:19;;;;;;;2.80;1.10;;;;;;;8.60;72.27;101297.88;5022841;28;20037;-73
2022/02/08 14:13:51;;;;;;;5.10;2.20;;;;;;;8.72;71.71;101298.03;5022066;28;20041;-72
2022/02/08 14:16:35;;;;;;;4.88;1.33;;;;;;;8.78;72.23;101298.13;5025872;28;20122;-72
2022/02/08 14:19:27;;;;;;;3.35;1.23;;;;;;;8.84;71.67;101294.69;5022685;28;20036;-72
2022/02/08 14:22:08;;;;;;;5.28;1.45;;;;;;;8.85;71.95;101293.81;5023182;28;20470;-72
2022/02/08 14:29:58;;;;;;;3.17;1.20;;;;;;;9.02;71.10;101296.69;5022222;28;20042;-73
2022/02/08 15:00:05;;;;;;;6.57;2.65;;;;;;;9.02;72.32;101286.16;5024128;28;20101;-72
2022/02/08 15:09:54;;;;;;;2.95;1.30;;;;;;;8.95;72.11;101290.44;5023180;28;20037;-73
2022/02/08 15:12:22;;;;;;;4.95;1.55;;;;;;;9.05;71.13;101287.06;5022986;28;20038;-72
2022/02/08 15:15:00;;;;;;;5.32;1.70;;;;;;;9.06;71.44;101277.41;5022323;28;20132;-73
2022/02/08 15:17:25;;;;;;;3.30;1.30;;;;;;;9.01;71.14;101285.25;5022539;28;20041;-73
2022/02/08 15:19:53;;;;;;;6.10;1.40;;;;;;;9.07;71.28;101276.56;5023606;28;20041;-73
2022/02/08 15:22:19;;;;;;;3.45;1.05;;;;;;;9.05;70.89;101266.00;5024102;28;20033;-73
2022/02/08 15:24:45;;;;;;;2.67;1.20;;;;;;;9.09;71.32;101283.63;5023700;28;20405;-73
2022/02/08 15:27:13;;;;;;;4.55;1.40;;;;;;;9.06;71.55;101283.56;5030174;28;20033;-73
2022/02/08 15:29:39;;;;;;;3.20;1.33;;;;;;;9.02;71.29;101289.66;5029878;28;20061;-73
2022/02/08 15:32:07;;;;;;;3.45;1.35;;;;;;;8.99;71.67;101287.88;5026517;28;20571;-73
2022/02/08 15:34:33;;;;;;;4.10;1.10;;;;;;;9.04;71.99;101282.69;5019940;28;20055;-72
2022/02/08 15:36:58;;;;;;;3.40;1.58;;;;;;;9.03;71.46;101287.91;5023131;28;20033;-72
2022/02/08 15:39:24;;;;;;;4.25;1.80;;;;;;;9.03;71.72;101294.06;5021606;28;20056;-72
2022/02/08 15:41:49;;;;;;;4.28;1.65;;;;;;;9.04;71.40;101295.84;5021614;28;20048;-72
2022/02/08 15:44:20;;;;;;;3.00;1.30;;;;;;;9.11;71.62;101302.94;5022927;28;20061;-72
2022/02/08 15:46:46;;;;;;;3.58;1.13;;;;;;;9.07;71.19;101301.13;5020938;28;20041;-72
2022/02/08 15:49:13;;;;;;;3.42;1.30;;;;;;;9.10;71.71;101305.56;5021540;28;20049;-71
2022/02/08 15:51:45;;;;;;;3.08;1.15;;;;;;;9.03;72.18;101301.94;5022664;28;20497;-72
2022/02/08 15:54:38;;;;;;;3.72;1.45;;;;;;;9.04;71.63;101294.94;5020520;28;20037;-72
2022/02/08 16:05:24;;;;;;;5.00;1.77;;;;;;;9.12;72.58;101298.56;5013348;28;20037;-72
2022/02/08 16:07:55;;;;;;;4.82;1.20;;;;;;;9.06;72.11;101299.34;5011195;28;20061;-72
2022/02/08 16:10:31;;;;;;;4.40;1.70;;;;;;;9.06;72.26;101306.38;5026668;28;20120;-71
2022/02/08 16:13:17;;;;;;;7.63;1.60;;;;;;;9.14;72.42;101307.34;5027827;28;20034;-72
2022/02/08 16:16:05;;;;;;;4.38;1.90;;;;;;;9.14;72.50;101310.88;5026475;28;20045;-71
2022/02/08 16:19:12;;;;;;;5.07;2.00;;;;;;;9.12;72.32;101304.72;5022083;28;20087;-72
2022/02/08 16:21:55;;;;;;;5.68;1.73;;;;;;;9.15;72.23;101315.28;5017423;28;20061;-71
2022/02/08 16:27:18;;;;;;;4.80;1.90;;;;;;;9.15;72.45;101320.53;5028980;28;20037;-71
2022/02/08 16:33:03;;;;;;;6.53;2.28;;;;;;;9.15;73.00;101325.81;5030225;28;20884;-71
2022/02/08 16:54:48;;;;;;;5.72;2.00;;;;;;;9.18;73.36;101338.13;4967335;28;20051;-72
2022/02/08 16:57:38;;;;;;;5.68;2.53;;;;;;;9.20;73.63;101339.03;5020562;28;20050;-72
2022/02/08 17:00:02;;;;;;;9.77;2.80;;;;;;;9.24;73.72;101338.19;5022336;28;20052;-71
2022/02/08 17:02:29;;;;;;;6.07;2.90;;;;;;;9.19;74.19;101338.13;5023151;28;20041;-71
2022/02/08 17:04:54;;;;;;;5.57;2.30;;;;;;;9.24;73.87;101350.50;5020615;28;20045;-71